Time;durP1;ratioP1;P1;durP2;ratioP2;P2;SDS_P1;SDS_P2;PMS_P1;PMS_P2;Temp;Humidity;BMP_temperature;BMP_pressure;BME280_temperature;BME280_humidity;BME280_pressure;Samples;Min_cycle;Max_cycle;Signal;HPM_P1;HPM_P2
2023/09/06 00:05:41;;;;;;;13.50;9.10;;;;;;;11.21;100.00;99859.33;270231;1268;22594;-85
2023/09/06 00:11:42;;;;;;;13.20;8.50;;;;;;;11.15;100.00;99864.14;271302;1268;22526;-85
2023/09/06 00:17:43;;;;;;;14.10;8.40;;;;;;;11.07;100.00;99868.65;269884;1269;25519;-86
2023/09/06 00:23:44;;;;;;;13.00;7.60;;;;;;;11.02;100.00;99865.08;270060;1269;22533;-85
2023/09/06 00:29:46;;;;;;;12.10;6.90;;;;;;;10.97;100.00;99867.00;270488;1268;22415;-85
2023/09/06 00:35:47;;;;;;;10.40;7.30;;;;;;;10.95;100.00;99868.59;270649;1269;22839;-84
2023/09/06 00:41:48;;;;;;;18.10;7.40;;;;;;;10.88;100.00;99871.95;273347;1268;23279;-84
2023/09/06 00:47:50;;;;;;;11.40;6.80;;;;;;;10.81;100.00;99877.11;273560;1270;22508;-85
2023/09/06 00:53:51;;;;;;;12.10;7.60;;;;;;;10.78;100.00;99880.09;273493;1268;23082;-85
2023/09/06 01:00:12;;;;;;;15.00;8.20;;;;;;;10.76;100.00;99880.02;270994;1268;24416;-85
2023/09/06 01:06:27;;;;;;;12.50;7.20;;;;;;;10.69;100.00;99878.46;273060;1253;22757;-85
2023/09/06 01:12:28;;;;;;;12.90;6.70;;;;;;;10.62;100.00;99884.38;273298;1268;22261;-85
2023/09/06 01:18:29;;;;;;;10.50;6.70;;;;;;;10.56;100.00;99885.02;270198;1269;22516;-84
2023/09/06 01:24:30;;;;;;;11.90;7.70;;;;;;;10.49;100.00;99880.30;269348;1269;22590;-84
2023/09/06 01:30:31;;;;;;;11.00;7.10;;;;;;;10.40;100.00;99881.71;269288;1268;24220;-84
2023/09/06 01:36:32;;;;;;;11.00;7.60;;;;;;;10.32;100.00;99877.85;269771;1269;22542;-84
2023/09/06 01:42:33;;;;;;;14.10;7.90;;;;;;;10.32;100.00;99874.48;270333;1269;22406;-85
2023/09/06 01:48:36;;;;;;;11.20;7.30;;;;;;;10.32;100.00;99869.31;273499;1266;22253;-85
2023/09/06 01:54:37;;;;;;;10.60;7.70;;;;;;;10.25;100.00;99870.00;270047;1269;22657;-86
2023/09/06 02:00:38;;;;;;;13.80;7.80;;;;;;;10.25;100.00;99868.97;270625;1269;23283;-84
2023/09/06 02:06:39;;;;;;;10.30;7.70;;;;;;;10.28;100.00;99866.32;273510;1268;24244;-84
2023/09/06 02:12:41;;;;;;;11.80;7.50;;;;;;;10.27;100.00;99866.38;272701;1266;22298;-85
2023/09/06 02:18:42;;;;;;;11.90;6.90;;;;;;;10.19;100.00;99870.77;273328;1268;22421;-84
2023/09/06 02:24:43;;;;;;;12.10;7.80;;;;;;;10.12;100.00;99861.29;270320;1268;24076;-84
2023/09/06 02:30:44;;;;;;;9.70;7.00;;;;;;;10.06;100.00;99854.45;272695;1268;22367;-84
2023/09/06 02:36:45;;;;;;;9.40;6.70;;;;;;;9.99;100.00;99853.87;271432;1268;25452;-84
2023/09/06 02:42:51;;;;;;;9.20;6.40;;;;;;;9.98;100.00;99857.36;269769;1268;22599;-84
2023/09/06 02:49:11;;;;;;;14.70;7.50;;;;;;;9.93;100.00;99860.41;270315;1269;22543;-85
2023/09/06 02:55:13;;;;;;;14.50;7.60;;;;;;;9.90;100.00;99859.33;272249;1269;22348;-84
2023/09/06 03:01:19;;;;;;;13.50;6.90;;;;;;;9.90;100.00;99857.28;273376;1269;22417;-85
2023/09/06 03:07:21;;;;;;;11.10;6.80;;;;;;;9.86;100.00;99853.89;271980;1264;22412;-83
2023/09/06 03:13:22;;;;;;;9.20;6.80;;;;;;;9.79;100.00;99860.04;273441;1269;22204;-83
2023/09/06 03:19:24;;;;;;;9.30;6.80;;;;;;;9.72;100.00;99860.52;273190;1266;22318;-84
2023/09/06 03:25:54;;;;;;;10.50;7.20;;;;;;;9.64;100.00;99856.70;273431;1268;22279;-84
2023/09/06 03:31:55;;;;;;;11.10;7.10;;;;;;;9.58;100.00;99856.92;272489;1268;22344;-83
2023/09/06 03:37:59;;;;;;;12.70;8.20;;;;;;;9.51;100.00;99857.46;273085;1269;22369;-83
2023/09/06 03:44:00;;;;;;;10.10;6.90;;;;;;;9.46;100.00;99863.08;270372;1269;23637;-83
2023/09/06 03:50:02;;;;;;;11.40;6.80;;;;;;;9.38;100.00;99864.09;273435;1268;22204;-83
2023/09/06 03:56:06;;;;;;;9.00;7.00;;;;;;;9.34;100.00;99869.34;273501;1270;23261;-83
2023/09/06 04:02:24;;;;;;;10.50;6.30;;;;;;;9.34;100.00;99870.14;273205;1271;22176;-83
2023/09/06 04:08:28;;;;;;;9.60;6.70;;;;;;;9.33;100.00;99873.70;273296;1269;23545;-84
2023/09/06 04:14:35;;;;;;;8.90;5.60;;;;;;;9.26;100.00;99870.60;273327;1261;22198;-83
2023/09/06 04:20:39;;;;;;;11.50;6.40;;;;;;;9.22;100.00;99866.02;273343;1261;23233;-84
2023/09/06 04:26:42;;;;;;;9.10;6.10;;;;;;;9.25;100.00;99860.81;273311;1269;22209;-83
2023/09/06 04:32:45;;;;;;;7.80;5.30;;;;;;;9.28;100.00;99867.63;273166;1270;22613;-83
2023/09/06 04:38:48;;;;;;;8.20;5.90;;;;;;;9.28;100.00;99872.46;270400;1268;25336;-84
2023/09/06 04:44:49;;;;;;;9.60;6.00;;;;;;;9.33;100.00;99885.47;269846;1269;23479;-83
2023/09/06 04:50:52;;;;;;;11.90;6.70;;;;;;;9.41;100.00;99894.16;269906;1269;24308;-84
2023/09/06 04:56:53;;;;;;;14.00;6.00;;;;;;;9.50;100.00;99896.63;271747;1267;22573;-83
2023/09/06 05:02:54;;;;;;;13.60;6.60;;;;;;;9.64;100.00;99894.20;270459;1269;22558;-84
2023/09/06 05:08:59;;;;;;;10.50;6.50;;;;;;;9.81;100.00;99884.94;270547;1270;22508;-83
2023/09/06 05:15:02;;;;;;;11.30;6.80;;;;;;;10.06;100.00;99886.58;270946;1270;23871;-83
2023/09/06 05:21:04;;;;;;;14.90;7.20;;;;;;;10.23;100.00;99891.58;272345;1269;22192;-83
2023/09/06 05:27:06;;;;;;;11.20;6.80;;;;;;;10.41;100.00;99899.09;273244;1269;22387;-84
2023/09/06 05:33:12;;;;;;;15.20;7.40;;;;;;;10.63;100.00;99905.61;271946;1269;22640;-84
2023/09/06 05:39:14;;;;;;;13.90;9.80;;;;;;;11.03;100.00;99906.90;272322;1268;23423;-84
2023/09/06 05:45:17;;;;;;;12.80;8.10;;;;;;;11.69;100.00;99908.41;273248;1270;22942;-84
2023/09/06 05:51:18;;;;;;;13.30;7.20;;;;;;;12.35;100.00;99905.58;273175;1268;22275;-84
2023/09/06 05:57:22;;;;;;;12.10;9.00;;;;;;;12.90;100.00;99907.63;271744;1266;22424;-85
2023/09/06 06:03:25;;;;;;;21.40;15.90;;;;;;;13.26;100.00;99907.44;272412;1270;22327;-83
2023/09/06 06:09:27;;;;;;;20.00;15.60;;;;;;;13.44;100.00;99914.15;273228;1269;23665;-84
2023/09/06 06:15:31;;;;;;;23.10;17.20;;;;;;;13.62;100.00;99912.98;273306;1269;22333;-83
2023/09/06 06:21:32;;;;;;;21.40;16.20;;;;;;;13.89;100.00;99916.54;270946;1268;22348;-83
2023/09/06 06:27:33;;;;;;;23.90;16.10;;;;;;;14.19;100.00;99915.98;269855;1269;22564;-84
2023/09/06 06:33:35;;;;;;;24.10;17.20;;;;;;;14.37;100.00;99916.35;273086;1270;22292;-85
2023/09/06 06:39:36;;;;;;;21.90;15.50;;;;;;;14.47;100.00;99917.63;270773;1269;22542;-84
2023/09/06 06:45:37;;;;;;;24.90;14.50;;;;;;;14.56;100.00;99916.70;270174;1269;22742;-85
2023/09/06 06:51:39;;;;;;;23.30;14.60;;;;;;;14.66;100.00;99915.61;271551;1269;23478;-84
2023/09/06 06:57:40;;;;;;;19.20;13.70;;;;;;;14.73;100.00;99915.84;273336;1270;23010;-84
2023/09/06 07:03:41;;;;;;;21.70;13.50;;;;;;;14.89;100.00;99915.50;273444;1270;23382;-85
2023/09/06 07:09:42;;;;;;;14.40;10.30;;;;;;;15.06;100.00;99914.93;273301;1269;22393;-84
2023/09/06 07:15:43;;;;;;;19.60;10.00;;;;;;;15.21;100.00;99916.15;273077;1269;22260;-84
2023/09/06 07:21:46;;;;;;;12.70;9.00;;;;;;;15.44;100.00;99921.29;273477;1269;22254;-85
2023/09/06 07:27:47;;;;;;;10.40;7.30;;;;;;;15.70;100.00;99922.30;273402;1269;22417;-84
2023/09/06 07:33:48;;;;;;;10.90;7.20;;;;;;;15.97;100.00;99923.55;273392;1268;22173;-85
2023/09/06 07:39:49;;;;;;;12.10;6.50;;;;;;;16.23;100.00;99926.95;273357;1269;22200;-86
2023/09/06 07:45:50;;;;;;;7.40;5.60;;;;;;;16.49;100.00;99926.56;270035;1268;22872;-84
2023/09/06 07:51:51;;;;;;;8.80;5.60;;;;;;;16.82;100.00;99929.30;269788;1269;22593;-84
2023/09/06 07:57:52;;;;;;;9.90;5.10;;;;;;;17.28;100.00;99922.42;272460;1268;23194;-85
2023/09/06 08:03:54;;;;;;;6.90;5.30;;;;;;;17.77;100.00;99920.59;273069;1270;23160;-85
2023/09/06 08:10:01;;;;;;;7.40;4.60;;;;;;;18.23;100.00;99914.80;273240;1268;22202;-85
2023/09/06 08:16:02;;;;;;;7.20;5.00;;;;;;;18.67;100.00;99913.84;272691;1267;22507;-85
2023/09/06 08:22:03;;;;;;;9.00;5.30;;;;;;;18.97;100.00;99911.46;271227;1268;22310;-85
2023/09/06 08:28:05;;;;;;;7.50;5.20;;;;;;;19.17;100.00;99913.28;273345;1269;22334;-86
2023/09/06 08:34:07;;;;;;;8.00;5.00;;;;;;;19.42;100.00;99910.29;272726;1269;22583;-86
2023/09/06 08:40:10;;;;;;;7.90;4.80;;;;;;;19.68;100.00;99912.16;272691;1268;22352;-85
2023/09/06 08:46:41;;;;;;;10.50;5.90;;;;;;;19.90;100.00;99909.84;272604;1269;23021;-83
2023/09/06 08:52:44;;;;;;;10.70;6.40;;;;;;;20.17;100.00;99906.11;272948;1269;22342;-84
2023/09/06 08:58:45;;;;;;;8.00;5.40;;;;;;;20.45;100.00;99907.14;271867;1266;22542;-84
2023/09/06 09:04:46;;;;;;;5.80;4.40;;;;;;;20.91;99.73;99908.68;270377;1268;22514;-84
2023/09/06 09:10:47;;;;;;;9.60;4.50;;;;;;;21.42;98.38;99906.86;271690;1269;22892;-86
2023/09/06 09:16:58;;;;;;;6.40;4.50;;;;;;;21.92;96.23;99905.27;271949;1269;22204;-83
2023/09/06 09:23:02;;;;;;;6.30;4.60;;;;;;;22.47;94.09;99904.10;270470;1268;23668;-84
2023/09/06 09:29:03;;;;;;;7.90;4.30;;;;;;;23.14;92.62;99904.90;273119;1262;23119;-86
2023/09/06 09:35:09;;;;;;;5.10;3.80;;;;;;;23.99;90.28;99900.98;273127;1261;22422;-84
2023/09/06 09:41:10;;;;;;;5.30;3.90;;;;;;;24.70;87.97;99907.05;273133;1269;22427;-85
2023/09/06 09:47:13;;;;;;;8.40;3.60;;;;;;;25.23;85.51;99906.00;273217;1269;23067;-85
2023/09/06 09:53:19;;;;;;;4.50;3.60;;;;;;;26.19;82.98;99911.36;273246;1268;22334;-85
2023/09/06 11:05:42;;;;;;;4.00;3.10;;;;;;;28.67;60.20;99880.43;264797;1305;544815;-85
2023/09/06 11:11:54;;;;;;;7.20;3.40;;;;;;;28.35;58.27;99872.71;271609;1285;22567;-84
2023/09/06 11:17:59;;;;;;;5.30;3.30;;;;;;;28.29;58.15;99868.48;268292;1279;354861;-87
2023/09/06 11:24:01;;;;;;;7.10;3.30;;;;;;;28.33;57.84;99865.33;268502;1276;24214;-85
2023/09/06 11:30:10;;;;;;;5.40;3.50;;;;;;;28.32;57.40;99864.19;269249;1275;22570;-86
2023/09/06 11:36:13;;;;;;;6.80;3.50;;;;;;;27.83;56.35;99865.40;270202;1276;22526;-87
2023/09/06 11:42:31;;;;;;;4.00;2.90;;;;;;;27.37;56.50;99858.05;269096;1276;22562;-86
2023/09/06 11:48:34;;;;;;;4.80;3.40;;;;;;;27.03;55.93;99858.23;271889;1277;22223;-87
2023/09/06 11:55:18;;;;;;;6.60;3.20;;;;;;;26.64;55.46;99863.36;272746;1280;22964;-87
2023/09/06 12:01:52;;;;;;;4.60;3.40;;;;;;;26.19;55.01;99861.60;272580;1275;22220;-86
2023/09/06 12:08:15;;;;;;;5.80;3.70;;;;;;;25.86;55.68;99859.86;272486;1260;22216;-87
2023/09/06 12:14:58;;;;;;;6.20;3.20;;;;;;;25.80;55.90;99852.41;272686;1273;22234;-86
2023/09/06 12:21:09;;;;;;;4.70;3.30;;;;;;;25.65;55.48;99851.52;272434;1276;22195;-86
2023/09/06 12:27:14;;;;;;;6.50;3.20;;;;;;;25.45;55.35;99849.84;272648;1277;22226;-87
2023/09/06 12:33:33;;;;;;;4.70;3.30;;;;;;;25.24;54.93;99847.39;272557;1283;22213;-86
2023/09/06 12:39:56;;;;;;;5.60;3.80;;;;;;;25.06;54.36;99844.79;272585;1282;22192;-86
2023/09/06 12:46:18;;;;;;;8.20;3.10;;;;;;;25.00;54.60;99838.68;272455;1281;22236;-86
2023/09/06 12:52:27;;;;;;;4.40;3.30;;;;;;;24.93;54.82;99832.05;272633;1282;22481;-86
2023/09/06 12:58:51;;;;;;;5.00;3.50;;;;;;;24.89;55.29;99824.41;272515;1275;22233;-86
2023/09/06 13:05:34;;;;;;;4.70;3.80;;;;;;;24.74;55.56;99819.63;272506;1276;22263;-86
2023/09/06 13:11:36;;;;;;;7.50;3.70;;;;;;;24.62;55.63;99820.82;272550;1275;23566;-87
2023/09/06 13:17:38;;;;;;;6.40;3.40;;;;;;;24.51;55.11;99817.96;272432;1284;22192;-86
2023/09/06 13:23:52;;;;;;;5.20;3.80;;;;;;;24.41;54.18;99812.06;272614;1276;22172;-86
2023/09/06 13:29:57;;;;;;;6.80;3.70;;;;;;;24.32;54.53;99805.06;272611;1283;22271;-86
2023/09/06 13:36:42;;;;;;;8.40;3.60;;;;;;;24.23;55.25;99802.25;272672;1277;22226;-86
2023/09/06 13:43:02;;;;;;;4.70;3.20;;;;;;;24.11;54.63;99797.73;272597;1283;22197;-86
2023/09/06 13:49:07;;;;;;;6.90;3.80;;;;;;;24.04;54.62;99789.42;272589;1269;23197;-86
2023/09/06 13:55:29;;;;;;;7.40;3.80;;;;;;;23.98;54.57;99786.38;271722;1275;22553;-86
2023/09/06 14:01:31;;;;;;;5.40;3.70;;;;;;;23.97;54.07;99780.67;269807;1275;23371;-86
2023/09/06 14:07:32;;;;;;;5.60;3.50;;;;;;;23.93;53.87;99777.84;272311;1283;23840;-86
2023/09/06 14:13:40;;;;;;;7.30;4.10;;;;;;;23.91;53.70;99774.67;269532;1275;22575;-86
2023/09/06 14:19:46;;;;;;;5.90;3.60;;;;;;;23.88;53.33;99776.68;269040;1275;22955;-86
2023/09/06 14:25:49;;;;;;;6.60;3.60;;;;;;;23.83;53.06;99771.00;268812;1275;22852;-87
2023/09/06 14:31:55;;;;;;;5.30;3.40;;;;;;;23.80;52.53;99767.11;268529;1275;23368;-87
2023/09/06 14:37:57;;;;;;;4.40;2.90;;;;;;;23.72;52.61;99764.64;268934;1275;22523;-86
2023/09/06 14:43:59;;;;;;;4.70;3.20;;;;;;;23.65;52.27;99766.69;268924;1275;22569;-85
2023/09/06 14:50:02;;;;;;;5.10;3.40;;;;;;;23.61;51.89;99759.61;272611;1283;22221;-86
2023/09/06 14:56:06;;;;;;;5.90;3.10;;;;;;;23.56;51.97;99760.08;271144;1280;24728;-87
2023/09/06 15:02:08;;;;;;;5.00;3.60;;;;;;;23.44;52.47;99759.58;271785;1276;22536;-86
2023/09/06 15:08:11;;;;;;;4.20;3.30;;;;;;;23.29;52.90;99762.30;272219;1280;22190;-87
2023/09/06 15:14:48;;;;;;;4.70;3.20;;;;;;;23.16;52.76;99761.05;272667;1275;22210;-87
2023/09/06 15:20:50;;;;;;;5.80;3.50;;;;;;;23.02;53.19;99760.06;272538;1278;22210;-87
2023/09/06 15:26:57;;;;;;;5.30;3.30;;;;;;;22.99;52.57;99761.29;272590;1269;22236;-86
2023/09/06 15:33:20;;;;;;;7.50;3.30;;;;;;;22.94;52.89;99763.17;272624;1283;22190;-87
2023/09/06 15:39:22;;;;;;;5.20;3.00;;;;;;;22.82;53.20;99763.08;272635;1275;22165;-87
2023/09/06 15:45:24;;;;;;;4.10;3.00;;;;;;;22.75;53.63;99768.62;271448;1275;22647;-86
2023/09/06 15:51:26;;;;;;;4.70;3.00;;;;;;;22.74;53.67;99769.23;270393;1276;22231;-86
2023/09/06 15:57:28;;;;;;;5.10;3.10;;;;;;;22.63;53.88;99767.73;272467;1279;22190;-87
2023/09/06 16:03:31;;;;;;;3.80;2.90;;;;;;;22.49;54.41;99769.58;272437;1280;23069;-87
2023/09/06 16:09:37;;;;;;;3.60;2.50;;;;;;;22.37;55.45;99768.20;272605;1279;22209;-86
2023/09/06 16:15:40;;;;;;;4.30;3.10;;;;;;;22.23;56.15;99766.31;271312;1275;22210;-86
2023/09/06 16:21:42;;;;;;;5.70;3.40;;;;;;;22.04;56.55;99771.52;272440;1278;23634;-87
2023/09/06 16:27:52;;;;;;;5.30;3.30;;;;;;;21.92;57.05;99772.59;272615;1276;22355;-87
2023/09/06 16:33:55;;;;;;;5.70;3.70;;;;;;;21.79;58.24;99782.60;269455;1275;22573;-85
2023/09/06 16:40:01;;;;;;;7.30;3.60;;;;;;;21.63;59.38;99785.64;271962;1275;23995;-86
2023/09/06 16:46:14;;;;;;;5.40;3.50;;;;;;;21.45;60.48;99784.80;269695;1275;22403;-87
2023/09/06 16:52:21;;;;;;;6.60;3.80;;;;;;;21.25;61.76;99793.23;269141;1275;22547;-86
2023/09/06 16:58:30;;;;;;;8.20;3.60;;;;;;;21.00;62.95;99795.54;262291;1275;10001861;-87
2023/09/06 17:04:32;;;;;;;6.20;3.60;;;;;;;20.75;63.97;99795.97;271167;1269;23410;-87
2023/09/06 17:10:57;;;;;;;8.80;4.10;;;;;;;20.50;64.74;99795.05;270850;1273;22595;-86
2023/09/06 17:17:01;;;;;;;7.00;3.50;;;;;;;20.22;66.18;99800.16;272415;1279;22305;-87
2023/09/06 17:23:06;;;;;;;6.80;4.60;;;;;;;19.92;67.13;99800.16;272483;1278;23351;-87
2023/09/06 17:29:29;;;;;;;9.00;4.60;;;;;;;19.65;68.45;99805.77;271053;1276;22562;-86
2023/09/06 17:35:51;;;;;;;7.70;4.30;;;;;;;19.40;69.63;99815.05;271991;1275;23261;-86
2023/09/06 17:41:54;;;;;;;8.60;5.20;;;;;;;19.15;70.90;99817.84;270751;1276;22510;-87
2023/09/06 17:47:56;;;;;;;8.80;5.70;;;;;;;18.95;72.48;99823.98;270029;1274;22215;-86
2023/09/06 17:54:03;;;;;;;9.80;5.40;;;;;;;18.70;73.08;99834.19;271941;1263;22259;-86
2023/09/06 18:00:13;;;;;;;;;;;;;;;18.43;75.21;99836.36;269135;1278;22673;-86
2023/09/06 18:06:19;;;;;;;7.40;4.90;;;;;;;18.13;76.70;99838.60;271665;1278;22420;-87
2023/09/06 18:12:22;;;;;;;8.70;5.10;;;;;;;17.87;77.80;99843.42;271700;1278;22437;-87
2023/09/06 18:18:23;;;;;;;9.40;5.00;;;;;;;17.67;78.51;99846.99;271606;1279;22663;-86
2023/09/06 18:24:25;;;;;;;9.50;5.80;;;;;;;17.53;78.78;99849.96;271780;1278;23467;-87
2023/09/06 18:30:27;;;;;;;9.40;5.60;;;;;;;17.40;79.59;99852.50;271643;1278;22496;-86
2023/09/06 18:36:29;;;;;;;9.80;5.50;;;;;;;17.22;80.77;99860.77;271390;1278;23006;-87
2023/09/06 18:42:31;;;;;;;6.40;4.80;;;;;;;16.95;81.81;99860.95;271765;1275;23296;-87
2023/09/06 18:48:37;;;;;;;9.10;6.50;;;;;;;16.73;82.62;99865.95;270866;1278;22558;-86
2023/09/06 18:54:38;;;;;;;13.50;8.30;;;;;;;16.59;83.43;99869.73;271070;1278;22448;-86
2023/09/06 19:00:43;;;;;;;14.10;9.00;;;;;;;16.54;83.76;99869.34;271598;1278;23002;-86
2023/09/06 19:06:45;;;;;;;13.80;7.60;;;;;;;16.46;84.58;99870.73;271715;1278;22368;-86
2023/09/06 19:12:47;;;;;;;15.50;8.20;;;;;;;16.22;84.25;99872.02;271484;1269;23665;-86
2023/09/06 19:18:49;;;;;;;15.90;9.60;;;;;;;16.01;84.85;99870.92;271599;1272;22374;-86
2023/09/06 19:24:50;;;;;;;17.60;10.40;;;;;;;15.87;85.47;99866.07;271411;1278;23138;-86
2023/09/06 19:30:57;;;;;;;13.80;9.30;;;;;;;15.80;86.45;99868.57;271508;1278;23293;-87
2023/09/06 19:36:59;;;;;;;16.50;9.00;;;;;;;15.66;87.30;99863.54;271569;1278;22222;-86
2023/09/06 19:43:01;;;;;;;9.30;7.20;;;;;;;15.57;88.14;99864.52;271515;1278;22838;-86
2023/09/06 19:49:04;;;;;;;12.80;7.50;;;;;;;15.40;88.49;99862.92;271659;1278;22235;-86
2023/09/06 19:55:06;;;;;;;11.10;7.00;;;;;;;15.24;89.22;99865.65;271551;1278;22441;-86
2023/09/06 20:01:08;;;;;;;12.80;8.10;;;;;;;15.13;89.81;99867.85;271602;1269;22381;-86
2023/09/06 20:07:10;;;;;;;14.40;8.70;;;;;;;15.00;90.21;99870.45;271661;1278;22426;-86
2023/09/06 20:13:12;;;;;;;13.70;8.10;;;;;;;14.86;90.70;99873.74;271430;1278;22501;-86
2023/09/06 20:19:14;;;;;;;13.20;8.10;;;;;;;14.77;91.43;99879.65;271600;1278;22439;-86
2023/09/06 20:25:15;;;;;;;26.60;8.80;;;;;;;14.68;91.62;99879.33;271147;1278;23286;-86
2023/09/06 20:31:17;;;;;;;13.30;9.80;;;;;;;14.48;92.01;99881.52;269153;1279;22555;-86
2023/09/06 20:37:20;;;;;;;17.60;10.20;;;;;;;14.34;92.48;99880.98;270236;1278;22591;-87
2023/09/06 20:43:22;;;;;;;16.60;9.40;;;;;;;14.24;93.21;99881.41;271277;1278;22478;-87
2023/09/06 20:49:23;;;;;;;18.10;9.80;;;;;;;14.15;93.61;99877.37;271672;1278;22661;-87
2023/09/06 20:55:26;;;;;;;14.70;9.90;;;;;;;14.03;93.88;99870.70;268476;1275;23584;-87
2023/09/06 21:01:28;;;;;;;13.70;8.10;;;;;;;13.95;94.52;99870.23;270896;1278;22184;-86
2023/09/06 21:07:30;;;;;;;12.50;8.50;;;;;;;13.84;94.90;99873.95;271865;1278;22417;-86
2023/09/06 21:13:35;;;;;;;12.70;9.10;;;;;;;13.76;95.36;99878.65;271707;1278;22421;-86
2023/09/06 21:19:37;;;;;;;13.10;8.50;;;;;;;13.68;95.70;99877.29;272549;1277;23392;-86
2023/09/06 21:25:40;;;;;;;12.90;8.50;;;;;;;13.57;96.01;99874.09;272402;1274;23390;-87
2023/09/06 21:31:41;;;;;;;12.50;8.40;;;;;;;13.48;96.27;99875.77;272445;1275;22364;-86
2023/09/06 21:37:43;;;;;;;11.90;8.50;;;;;;;13.36;96.38;99874.89;272493;1275;23412;-86
2023/09/06 21:43:45;;;;;;;11.10;7.50;;;;;;;13.27;96.88;99877.20;272560;1275;22504;-86
2023/09/06 21:49:47;;;;;;;12.80;6.90;;;;;;;13.16;97.27;99886.16;272490;1273;22403;-86
2023/09/06 21:55:48;;;;;;;16.10;8.50;;;;;;;13.05;97.33;99895.09;272475;1275;22551;-86
2023/09/06 22:01:50;;;;;;;13.90;9.30;;;;;;;12.89;97.51;99896.31;272523;1275;23471;-86
2023/09/06 22:08:10;;;;;;;12.10;8.00;;;;;;;12.89;98.62;99896.15;272175;1275;22384;-86
2023/09/06 22:14:31;;;;;;;12.90;8.80;;;;;;;12.84;98.78;99903.20;270908;1264;22630;-86
2023/09/06 22:20:41;;;;;;;13.50;9.60;;;;;;;12.80;99.10;99905.26;271590;1274;22405;-86
2023/09/06 22:26:43;;;;;;;15.10;9.50;;;;;;;12.72;99.26;99911.50;272826;1276;22547;-86
2023/09/06 22:32:45;;;;;;;13.90;9.40;;;;;;;12.63;99.24;99915.73;270926;1273;23459;-86
2023/09/06 22:38:47;;;;;;;17.30;12.10;;;;;;;12.57;99.66;99920.10;272705;1275;22323;-86
2023/09/06 22:44:49;;;;;;;21.50;13.40;;;;;;;12.51;99.97;99922.34;272385;1274;22436;-86
2023/09/06 22:50:51;;;;;;;20.50;12.10;;;;;;;12.46;100.00;99925.87;272467;1262;22437;-86
2023/09/06 22:56:53;;;;;;;21.90;11.90;;;;;;;12.42;100.00;99927.45;272276;1275;22303;-85
2023/09/06 23:02:54;;;;;;;22.80;11.90;;;;;;;12.38;100.00;99928.79;272408;1275;22456;-86
2023/09/06 23:08:58;;;;;;;18.80;11.20;;;;;;;12.32;100.00;99928.04;272378;1275;22127;-86
2023/09/06 23:15:00;;;;;;;22.20;13.10;;;;;;;12.27;100.00;99926.45;270640;1275;276029;-85
2023/09/06 23:21:07;;;;;;;23.10;12.30;;;;;;;12.21;100.00;99922.81;271060;1275;22535;-86
2023/09/06 23:27:17;;;;;;;20.10;11.80;;;;;;;12.11;100.00;99923.78;270431;1275;22914;-86
2023/09/06 23:33:33;;;;;;;19.70;11.60;;;;;;;12.00;100.00;99925.77;272682;1281;23310;-86
2023/09/06 23:39:40;;;;;;;18.50;11.30;;;;;;;11.93;100.00;99933.46;272657;1275;22213;-86
2023/09/06 23:45:45;;;;;;;17.80;11.70;;;;;;;11.88;100.00;99937.91;272514;1275;22183;-86
2023/09/06 23:51:47;;;;;;;16.70;11.80;;;;;;;11.86;100.00;99938.72;271731;1274;22553;-85
2023/09/06 23:57:49;;;;;;;17.00;10.90;;;;;;;11.85;100.00;99939.02;271028;1273;22546;-85
